Time;durP1;ratioP1;P1;durP2;ratioP2;P2;SDS_P1;SDS_P2;PMS_P1;PMS_P2;Temp;Humidity;BMP_temperature;BMP_pressure;BME280_temperature;BME280_humidity;BME280_pressure;Samples;Min_cycle;Max_cycle;Signal;HPM_P1;HPM_P2
2024/03/01 00:01:17;;;;;;;10.50;6.35;;;8.50;99.90;;;;;;5050883;28;20033;-76
2024/03/01 00:03:42;;;;;;;13.48;6.13;;;8.50;99.90;;;;;;5051215;28;20032;-76
2024/03/01 00:06:08;;;;;;;12.48;7.13;;;8.50;99.90;;;;;;5051258;28;20036;-76
2024/03/01 00:08:34;;;;;;;12.32;6.57;;;8.50;99.90;;;;;;5050935;28;20037;-76
2024/03/01 00:10:59;;;;;;;9.93;6.32;;;8.60;99.90;;;;;;5050695;28;20052;-75
2024/03/01 00:13:25;;;;;;;11.27;6.75;;;8.50;99.90;;;;;;5051450;28;20041;-76
2024/03/01 00:15:50;;;;;;;12.02;6.50;;;8.50;99.90;;;;;;5051157;28;20547;-76
2024/03/01 00:18:17;;;;;;;13.75;6.78;;;8.50;99.90;;;;;;5050896;28;20048;-76
2024/03/01 00:20:42;;;;;;;11.50;6.70;;;8.50;99.90;;;;;;5050518;28;20068;-75
2024/03/01 00:23:08;;;;;;;11.68;6.70;;;8.50;99.90;;;;;;5052481;28;20512;-75
2024/03/01 00:25:34;;;;;;;12.23;6.15;;;8.50;99.90;;;;;;5050898;28;20437;-75
2024/03/01 00:27:59;;;;;;;9.82;6.30;;;8.40;99.90;;;;;;5052253;28;20124;-76
2024/03/01 00:30:25;;;;;;;8.98;5.78;;;8.40;99.90;;;;;;5050597;28;20041;-76
2024/03/01 00:32:51;;;;;;;9.68;6.28;;;8.50;99.90;;;;;;5033862;28;20128;-75
2024/03/01 00:35:16;;;;;;;10.10;5.75;;;8.40;99.90;;;;;;5050657;28;20044;-76
2024/03/01 00:37:42;;;;;;;9.80;5.47;;;8.40;99.90;;;;;;5051697;28;20041;-75
2024/03/01 00:40:08;;;;;;;10.48;6.35;;;8.40;99.90;;;;;;5050414;28;20060;-76
2024/03/01 00:42:33;;;;;;;10.32;5.70;;;8.30;99.90;;;;;;5050206;28;20385;-76
2024/03/01 00:44:59;;;;;;;8.98;5.60;;;8.40;99.90;;;;;;5050647;28;20523;-76
2024/03/01 00:47:25;;;;;;;8.27;5.22;;;8.30;99.90;;;;;;5050350;28;20045;-76
2024/03/01 00:49:50;;;;;;;9.90;5.70;;;8.30;99.90;;;;;;5050255;28;20087;-75
2024/03/01 00:52:16;;;;;;;9.73;5.80;;;8.40;99.90;;;;;;5051310;28;20064;-75
2024/03/01 00:54:42;;;;;;;10.95;6.18;;;8.40;99.90;;;;;;5050737;28;20040;-76
2024/03/01 00:57:07;;;;;;;10.60;5.65;;;8.30;99.90;;;;;;5051681;28;20042;-76
2024/03/01 00:59:33;;;;;;;8.32;5.32;;;8.40;99.90;;;;;;5051378;28;20492;-76
2024/03/01 01:01:59;;;;;;;9.20;5.60;;;8.40;99.90;;;;;;5050764;28;20051;-76
2024/03/01 01:04:24;;;;;;;8.38;6.13;;;8.40;99.90;;;;;;5050554;28;20052;-76
2024/03/01 01:06:51;;;;;;;10.52;6.30;;;8.40;99.90;;;;;;5050248;28;20044;-76
2024/03/01 01:09:16;;;;;;;9.13;5.43;;;8.40;99.90;;;;;;5050056;28;20052;-75
2024/03/01 01:11:42;;;;;;;9.23;6.00;;;8.30;99.90;;;;;;5051110;28;20045;-76
2024/03/01 01:14:08;;;;;;;9.90;5.68;;;8.40;99.90;;;;;;5050232;28;20072;-76
2024/03/01 01:16:33;;;;;;;9.65;6.28;;;8.40;99.90;;;;;;5050033;28;20035;-76
2024/03/01 01:18:59;;;;;;;10.15;5.50;;;8.40;99.90;;;;;;5049758;28;20045;-76
2024/03/01 01:21:24;;;;;;;8.85;6.13;;;8.40;99.90;;;;;;5049681;28;20531;-75
2024/03/01 01:23:50;;;;;;;11.30;6.72;;;8.30;99.90;;;;;;5049636;28;20041;-76
2024/03/01 01:26:16;;;;;;;9.68;6.03;;;8.30;99.90;;;;;;5050316;28;20033;-76
2024/03/01 01:28:42;;;;;;;8.73;6.10;;;8.40;99.90;;;;;;5049826;28;20094;-76
2024/03/01 01:31:08;;;;;;;9.98;6.28;;;8.40;99.90;;;;;;5049529;28;20091;-76
2024/03/01 01:33:34;;;;;;;9.88;6.13;;;8.30;99.90;;;;;;5049982;28;20044;-76
2024/03/01 01:35:59;;;;;;;11.45;6.75;;;8.30;99.90;;;;;;5050079;28;20079;-76
2024/03/01 01:38:25;;;;;;;8.23;5.40;;;8.20;99.90;;;;;;5050780;28;20037;-75
2024/03/01 01:40:52;;;;;;;8.63;6.00;;;8.30;99.90;;;;;;5050769;28;20041;-76
2024/03/01 01:43:17;;;;;;;10.75;6.18;;;8.30;99.90;;;;;;5049906;28;20048;-76
2024/03/01 01:45:43;;;;;;;8.52;5.90;;;8.30;99.90;;;;;;5049806;28;20440;-76
2024/03/01 01:48:09;;;;;;;9.77;6.40;;;8.30;99.90;;;;;;5049074;28;20042;-75
2024/03/01 01:50:36;;;;;;;10.52;6.38;;;8.30;99.90;;;;;;5049456;28;20501;-76
2024/03/01 01:53:03;;;;;;;9.50;5.80;;;8.30;99.90;;;;;;5049873;28;20512;-77
2024/03/01 01:55:29;;;;;;;7.80;5.38;;;8.20;99.90;;;;;;5049840;28;20049;-76
2024/03/01 01:57:56;;;;;;;9.40;6.40;;;8.20;99.90;;;;;;5049545;28;20060;-75
2024/03/01 02:00:22;;;;;;;9.13;5.72;;;8.20;99.90;;;;;;5049347;28;20542;-76
2024/03/01 02:02:50;;;;;;;8.70;5.20;;;8.20;99.90;;;;;;5032865;28;20048;-76
2024/03/01 02:05:17;;;;;;;8.95;5.55;;;8.20;99.90;;;;;;5049775;28;20045;-76
2024/03/01 02:07:43;;;;;;;11.57;5.75;;;8.20;99.90;;;;;;5050823;28;20055;-76
2024/03/01 02:10:19;;;;;;;10.02;5.88;;;8.30;99.90;;;;;;5049375;28;20525;-76
2024/03/01 02:12:58;;;;;;;7.63;5.20;;;8.20;99.90;;;;;;5049273;28;20404;-76
2024/03/01 02:15:25;;;;;;;9.38;5.75;;;8.20;99.90;;;;;;5049565;28;20060;-76
2024/03/01 02:17:51;;;;;;;9.80;5.28;;;8.20;99.90;;;;;;5049704;28;20045;-76
2024/03/01 02:20:20;;;;;;;8.48;5.38;;;8.20;99.90;;;;;;5050548;28;20041;-76
2024/03/01 02:22:52;;;;;;;9.65;6.07;;;8.20;99.90;;;;;;5032712;28;20040;-75
2024/03/01 02:25:18;;;;;;;8.95;5.22;;;8.20;99.90;;;;;;5049910;28;20079;-76
2024/03/01 02:27:45;;;;;;;10.85;6.60;;;8.20;99.90;;;;;;5045470;28;20032;-76
2024/03/01 02:30:11;;;;;;;12.23;6.32;;;8.20;99.90;;;;;;5041381;28;20041;-76
2024/03/01 02:32:37;;;;;;;9.45;5.20;;;8.20;99.90;;;;;;5049053;28;20049;-76
2024/03/01 02:35:03;;;;;;;11.60;6.18;;;8.20;99.90;;;;;;5034101;28;20170;-76
2024/03/01 02:37:28;;;;;;;10.77;6.03;;;8.20;99.90;;;;;;5036235;28;20036;-76
2024/03/01 02:39:54;;;;;;;6.47;5.25;;;8.20;99.90;;;;;;5052732;28;20044;-76
2024/03/01 02:42:19;;;;;;;9.25;5.55;;;8.20;99.90;;;;;;5052741;28;20134;-76
2024/03/01 02:44:45;;;;;;;7.78;5.03;;;8.20;99.90;;;;;;5052913;28;20045;-76
2024/03/01 02:47:11;;;;;;;9.70;5.88;;;8.20;99.90;;;;;;5052626;28;20041;-77
2024/03/01 02:49:36;;;;;;;10.43;6.30;;;8.10;99.90;;;;;;5035990;28;20043;-76
2024/03/01 02:52:02;;;;;;;9.07;5.90;;;8.10;99.90;;;;;;5052314;28;20408;-76
2024/03/01 02:54:27;;;;;;;13.63;6.63;;;8.20;99.90;;;;;;5053962;28;20037;-76
2024/03/01 02:56:53;;;;;;;9.98;5.78;;;8.20;99.90;;;;;;5052723;28;20416;-76
2024/03/01 02:59:19;;;;;;;7.50;5.03;;;8.20;99.90;;;;;;5035656;28;20500;-76
2024/03/01 03:01:44;;;;;;;8.80;5.50;;;8.20;99.90;;;;;;5052014;28;20037;-76
2024/03/01 03:04:10;;;;;;;10.85;5.55;;;8.20;99.90;;;;;;5052267;28;20079;-76
2024/03/01 03:06:35;;;;;;;10.07;5.68;;;8.20;99.90;;;;;;5053487;28;20029;-76
2024/03/01 03:09:01;;;;;;;10.80;6.18;;;8.10;99.90;;;;;;5035584;28;20041;-76
2024/03/01 03:11:27;;;;;;;9.30;6.10;;;8.10;99.90;;;;;;5052025;28;20432;-76
2024/03/01 03:13:52;;;;;;;9.25;6.07;;;8.20;99.90;;;;;;5052464;28;20520;-75
2024/03/01 03:16:18;;;;;;;11.57;6.47;;;8.20;99.90;;;;;;5052131;28;20029;-76
2024/03/01 03:18:43;;;;;;;8.35;5.57;;;8.10;99.90;;;;;;5052043;28;20044;-76
2024/03/01 03:21:09;;;;;;;8.48;5.70;;;8.20;99.90;;;;;;5051725;28;20056;-76
2024/03/01 03:23:35;;;;;;;9.75;5.93;;;8.10;99.90;;;;;;5052415;28;20084;-76
2024/03/01 03:26:00;;;;;;;9.82;5.88;;;8.10;99.90;;;;;;5052188;28;20408;-77
2024/03/01 03:28:26;;;;;;;8.45;5.63;;;8.10;99.90;;;;;;5051566;28;20045;-76
2024/03/01 03:30:52;;;;;;;11.38;5.95;;;8.10;99.90;;;;;;5035099;28;20126;-76
2024/03/01 03:33:17;;;;;;;9.55;5.63;;;8.10;99.90;;;;;;5052112;28;20045;-77
2024/03/01 03:35:43;;;;;;;10.45;5.82;;;8.20;99.90;;;;;;5053291;28;20033;-76
2024/03/01 03:38:09;;;;;;;10.63;5.43;;;8.00;99.90;;;;;;5051817;28;20416;-75
2024/03/01 03:40:34;;;;;;;10.90;5.97;;;8.00;99.90;;;;;;5051772;28;20045;-77
2024/03/01 03:43:00;;;;;;;8.35;5.78;;;8.00;99.90;;;;;;5035291;28;20155;-77
2024/03/01 03:45:26;;;;;;;11.70;6.30;;;8.00;99.90;;;;;;5034857;28;20041;-76
2024/03/01 03:47:52;;;;;;;9.20;5.50;;;8.10;99.90;;;;;;5051625;28;20037;-76
2024/03/01 03:50:17;;;;;;;11.73;6.82;;;8.00;99.90;;;;;;5052074;28;20033;-76
2024/03/01 03:52:44;;;;;;;11.10;7.45;;;8.10;99.90;;;;;;5051594;28;20520;-76
2024/03/01 03:55:10;;;;;;;9.20;5.75;;;8.00;99.90;;;;;;5034905;28;20044;-77
2024/03/01 03:57:36;;;;;;;13.13;6.75;;;8.00;99.90;;;;;;5051495;28;20049;-77
2024/03/01 04:00:08;;;;;;;11.10;6.47;;;8.00;99.90;;;;;;5051530;28;20041;-76
2024/03/01 04:02:34;;;;;;;11.00;7.00;;;8.00;99.90;;;;;;5051177;28;20071;-76
2024/03/01 04:05:00;;;;;;;10.20;7.50;;;7.90;99.90;;;;;;5051442;28;20069;-76
2024/03/01 04:07:25;;;;;;;10.52;6.80;;;7.80;99.90;;;;;;5034568;28;20127;-76
2024/03/01 04:09:51;;;;;;;13.32;7.30;;;7.80;99.90;;;;;;5051131;28;20572;-75
2024/03/01 04:12:17;;;;;;;10.25;6.32;;;7.90;99.90;;;;;;5052258;28;20041;-76
2024/03/01 04:14:42;;;;;;;9.88;6.03;;;7.70;99.90;;;;;;5051391;28;20041;-76
2024/03/01 04:17:10;;;;;;;9.02;6.20;;;7.80;99.90;;;;;;5051353;28;20512;-76
2024/03/01 04:19:37;;;;;;;12.95;7.45;;;7.70;99.90;;;;;;5050871;28;20097;-77
2024/03/01 04:22:03;;;;;;;11.27;7.38;;;7.70;99.90;;;;;;5034302;28;20045;-76
2024/03/01 04:24:29;;;;;;;11.70;7.53;;;7.70;99.90;;;;;;5051297;28;20044;-76
2024/03/01 04:26:55;;;;;;;12.07;6.90;;;7.70;99.90;;;;;;5034622;28;20040;-76
2024/03/01 04:29:21;;;;;;;10.98;7.10;;;7.60;99.90;;;;;;5034072;28;20516;-76
2024/03/01 04:31:49;;;;;;;13.77;8.05;;;7.60;99.90;;;;;;5051923;28;20044;-76
2024/03/01 04:34:18;;;;;;;11.70;7.68;;;7.60;99.90;;;;;;5052121;28;20516;-76
2024/03/01 04:36:45;;;;;;;13.85;8.20;;;7.50;99.90;;;;;;5050521;28;20037;-76
2024/03/01 04:39:14;;;;;;;14.70;8.85;;;7.50;99.90;;;;;;5050471;28;20099;-76
2024/03/01 04:41:40;;;;;;;15.55;7.50;;;7.40;99.90;;;;;;5050834;28;20040;-75
2024/03/01 04:44:06;;;;;;;14.30;8.70;;;7.30;99.90;;;;;;5050980;28;20037;-75
2024/03/01 04:46:31;;;;;;;14.90;8.77;;;7.40;99.90;;;;;;5050781;28;20044;-76
2024/03/01 04:48:57;;;;;;;12.30;7.97;;;7.40;99.90;;;;;;5071081;23;20052;-75
2024/03/01 04:51:24;;;;;;;14.38;9.35;;;7.40;99.90;;;;;;5050037;28;20125;-74
2024/03/01 04:53:50;;;;;;;15.48;8.98;;;7.40;99.90;;;;;;5050471;28;20231;-74
2024/03/01 04:56:17;;;;;;;18.17;8.65;;;7.40;99.90;;;;;;5050425;28;20048;-75
2024/03/01 04:58:43;;;;;;;12.68;8.63;;;7.40;99.90;;;;;;5049257;28;20040;-75
2024/03/01 05:01:10;;;;;;;15.80;8.77;;;7.50;99.90;;;;;;5049324;28;20438;-75
2024/03/01 05:03:36;;;;;;;16.10;7.85;;;7.50;99.90;;;;;;5033570;28;20069;-74
2024/03/01 05:06:03;;;;;;;14.70;8.02;;;7.50;99.90;;;;;;5033646;28;20413;-75
2024/03/01 05:08:31;;;;;;;15.52;7.63;;;7.60;99.90;;;;;;5033367;28;20484;-74
2024/03/01 05:10:57;;;;;;;13.45;8.85;;;7.50;99.90;;;;;;5033267;28;20782;-74
2024/03/01 05:13:22;;;;;;;13.10;8.43;;;7.60;99.90;;;;;;5050445;28;20132;-74
2024/03/01 05:15:49;;;;;;;14.50;7.82;;;7.60;99.90;;;;;;5033848;28;20627;-74
2024/03/01 05:18:15;;;;;;;19.38;10.05;;;7.60;99.90;;;;;;5033130;28;20080;-74
2024/03/01 05:20:41;;;;;;;15.20;8.02;;;7.60;99.90;;;;;;5049398;28;20170;-74
2024/03/01 05:23:07;;;;;;;15.35;8.93;;;7.60;99.90;;;;;;5050178;28;20037;-75
2024/03/01 05:25:33;;;;;;;15.75;8.90;;;7.60;99.90;;;;;;5050092;28;20037;-74
2024/03/01 05:27:59;;;;;;;16.30;9.02;;;7.60;99.90;;;;;;5050092;28;20486;-75
2024/03/01 05:30:26;;;;;;;19.50;9.13;;;7.60;99.90;;;;;;5049881;28;20071;-74
2024/03/01 05:32:52;;;;;;;13.15;8.73;;;7.70;99.90;;;;;;5049637;28;20048;-74
2024/03/01 05:35:20;;;;;;;13.95;8.95;;;7.60;99.90;;;;;;5049984;28;20037;-74
2024/03/01 05:37:46;;;;;;;17.38;9.38;;;7.70;99.90;;;;;;5050135;28;20044;-75
2024/03/01 05:40:14;;;;;;;17.30;9.40;;;7.80;99.90;;;;;;5049681;28;20048;-75
2024/03/01 05:42:41;;;;;;;13.00;8.48;;;7.70;99.90;;;;;;5049492;28;20052;-75
2024/03/01 05:45:08;;;;;;;15.20;9.50;;;7.80;99.90;;;;;;5050172;28;20421;-74
2024/03/01 05:47:38;;;;;;;18.02;10.02;;;7.80;99.90;;;;;;5049750;28;20165;-74
2024/03/01 05:50:05;;;;;;;17.67;9.95;;;7.80;99.90;;;;;;5049670;28;20065;-74
2024/03/01 05:52:32;;;;;;;17.98;9.10;;;7.70;99.90;;;;;;5049616;28;20161;-74
2024/03/01 05:54:58;;;;;;;15.77;8.82;;;7.80;99.90;;;;;;5049789;28;20041;-75
2024/03/01 05:57:25;;;;;;;17.20;9.85;;;7.80;99.90;;;;;;5049699;28;20073;-75
2024/03/01 05:59:50;;;;;;;15.55;9.13;;;7.70;99.90;;;;;;5050720;28;20053;-75
2024/03/01 06:02:16;;;;;;;16.00;9.93;;;7.80;99.90;;;;;;5050578;28;20400;-75
2024/03/01 06:04:42;;;;;;;17.52;9.48;;;7.80;99.90;;;;;;5051182;28;20037;-74
2024/03/01 06:07:08;;;;;;;17.67;10.07;;;7.80;99.90;;;;;;5033135;28;20120;-74
2024/03/01 06:09:34;;;;;;;15.80;9.85;;;7.80;99.90;;;;;;5052039;28;20037;-74
2024/03/01 06:12:00;;;;;;;16.63;10.15;;;7.80;99.90;;;;;;5053300;28;20045;-74
2024/03/01 06:14:26;;;;;;;18.27;10.15;;;7.80;99.90;;;;;;5053373;28;20040;-74
2024/03/01 06:16:52;;;;;;;17.38;9.88;;;7.90;99.90;;;;;;5053333;28;20040;-75
2024/03/01 06:19:18;;;;;;;15.13;10.05;;;7.90;99.90;;;;;;5052956;28;20415;-75
2024/03/01 06:21:43;;;;;;;18.30;10.15;;;7.80;99.90;;;;;;5052977;28;20041;-74
2024/03/01 06:24:09;;;;;;;20.90;10.57;;;7.90;99.90;;;;;;5053408;28;20028;-74
2024/03/01 06:26:35;;;;;;;16.20;10.10;;;7.90;99.90;;;;;;5036733;28;20045;-73
2024/03/01 06:29:01;;;;;;;16.33;10.45;;;7.90;99.90;;;;;;5036417;28;20385;-74
2024/03/01 06:31:27;;;;;;;21.17;10.70;;;7.90;99.90;;;;;;5036137;28;20048;-74
2024/03/01 06:33:53;;;;;;;18.35;10.38;;;8.00;99.90;;;;;;5052898;28;20408;-74
2024/03/01 06:36:18;;;;;;;16.92;9.85;;;7.90;99.90;;;;;;5036506;28;20079;-74
2024/03/01 06:38:44;;;;;;;15.60;10.45;;;8.10;99.90;;;;;;5052793;28;20083;-74
2024/03/01 06:41:10;;;;;;;15.80;10.85;;;8.10;99.90;;;;;;5052429;28;20044;-74
2024/03/01 06:43:35;;;;;;;18.23;10.00;;;8.10;99.90;;;;;;5052798;28;20075;-73
2024/03/01 06:46:06;;;;;;;19.13;10.40;;;8.10;99.90;;;;;;5053239;28;20543;-74
2024/03/01 06:48:32;;;;;;;19.00;11.35;;;8.30;99.90;;;;;;5052505;28;20047;-73
2024/03/01 06:50:58;;;;;;;20.08;11.95;;;8.20;99.90;;;;;;5052709;28;20048;-74
2024/03/01 06:53:26;;;;;;;18.70;11.02;;;8.20;99.90;;;;;;5036305;28;20481;-74
2024/03/01 06:55:51;;;;;;;19.33;11.30;;;8.20;99.90;;;;;;5052685;28;20094;-74
2024/03/01 06:58:17;;;;;;;17.98;11.68;;;8.30;99.90;;;;;;5035854;28;20037;-74
2024/03/01 07:00:46;;;;;;;19.50;11.57;;;8.30;99.90;;;;;;5052190;28;20467;-73
2024/03/01 07:03:14;;;;;;;18.45;10.98;;;8.30;99.90;;;;;;5052616;28;20072;-74
2024/03/01 07:05:40;;;;;;;21.60;12.38;;;8.30;99.90;;;;;;5052578;28;20102;-74
2024/03/01 07:08:06;;;;;;;19.45;11.65;;;8.30;99.90;;;;;;5052667;28;20032;-74
2024/03/01 07:10:32;;;;;;;20.83;12.30;;;8.40;99.90;;;;;;5052446;28;20051;-74
2024/03/01 07:12:58;;;;;;;18.75;11.63;;;8.40;99.90;;;;;;5035319;28;20048;-74
2024/03/01 07:15:25;;;;;;;17.63;11.50;;;8.40;99.90;;;;;;5052645;28;20584;-74
2024/03/01 07:17:52;;;;;;;18.33;11.70;;;8.30;99.90;;;;;;5052554;28;20049;-74
2024/03/01 07:20:18;;;;;;;17.42;10.45;;;8.40;99.90;;;;;;5034435;28;20037;-74
2024/03/01 07:22:43;;;;;;;19.60;11.23;;;8.40;99.90;;;;;;5051888;28;20170;-73
2024/03/01 07:25:09;;;;;;;19.33;10.95;;;8.40;99.90;;;;;;5052111;28;20051;-74
2024/03/01 07:27:35;;;;;;;15.93;10.48;;;8.50;99.90;;;;;;5035682;28;20033;-74
2024/03/01 07:30:05;;;;;;;18.27;10.48;;;8.40;99.90;;;;;;5052139;28;20076;-74
2024/03/01 07:32:35;;;;;;;14.05;9.20;;;8.40;99.90;;;;;;5051718;28;20128;-74
2024/03/01 07:35:08;;;;;;;13.02;8.20;;;8.40;99.90;;;;;;5052057;28;20119;-74
2024/03/01 07:37:34;;;;;;;10.18;7.03;;;8.40;99.90;;;;;;5051986;28;20095;-74
2024/03/01 07:40:00;;;;;;;10.45;6.22;;;8.30;99.90;;;;;;5051500;28;20041;-74
2024/03/01 07:42:26;;;;;;;6.32;3.40;;;8.30;99.90;;;;;;5051453;28;20044;-74
2024/03/01 07:44:53;;;;;;;5.03;3.33;;;8.20;99.90;;;;;;5035537;28;20029;-74
2024/03/01 07:47:18;;;;;;;2.83;1.70;;;8.20;99.90;;;;;;5051719;28;20048;-74
2024/03/01 07:49:47;;;;;;;3.45;1.73;;;8.10;99.90;;;;;;5051719;28;20037;-74
2024/03/01 07:52:13;;;;;;;3.25;1.67;;;8.10;99.90;;;;;;5051183;28;20040;-74
2024/03/01 07:54:39;;;;;;;3.88;1.65;;;7.90;99.90;;;;;;5030504;28;20090;-73
2024/03/01 07:57:04;;;;;;;2.30;1.30;;;8.00;99.90;;;;;;5031047;28;20081;-74
2024/03/01 07:59:30;;;;;;;2.55;1.05;;;7.80;99.90;;;;;;5014386;28;20053;-74
2024/03/01 08:01:57;;;;;;;2.33;1.00;;;7.70;99.90;;;;;;5031133;28;20041;-73
2024/03/01 08:04:23;;;;;;;4.97;1.17;;;7.60;99.90;;;;;;5031820;28;20512;-73
2024/03/01 08:06:48;;;;;;;5.20;0.90;;;7.60;99.90;;;;;;5031458;28;20045;-73
2024/03/01 08:09:19;;;;;;;4.35;0.70;;;7.60;99.90;;;;;;5031442;28;20139;-74
2024/03/01 08:11:45;;;;;;;1.52;0.77;;;7.60;99.90;;;;;;5031017;28;20050;-73
2024/03/01 08:14:22;;;;;;;2.22;1.13;;;7.50;99.90;;;;;;5014872;28;20037;-73
2024/03/01 08:16:55;;;;;;;2.10;0.80;;;7.50;99.90;;;;;;5014705;28;20037;-73
2024/03/01 08:19:24;;;;;;;4.40;1.98;;;7.40;99.90;;;;;;5030850;28;20056;-74
2024/03/01 08:21:59;;;;;;;2.13;0.70;;;7.40;99.90;;;;;;5030829;28;20041;-74
2024/03/01 08:24:25;;;;;;;1.17;0.57;;;7.60;99.90;;;;;;5031140;28;20037;-74
2024/03/01 08:26:50;;;;;;;2.05;1.00;;;7.50;99.90;;;;;;5040282;28;20558;-73
2024/03/01 08:29:17;;;;;;;2.90;0.73;;;7.40;99.90;;;;;;5050790;28;20037;-73
2024/03/01 08:31:44;;;;;;;1.95;0.77;;;7.50;99.90;;;;;;5034183;28;20406;-74
2024/03/01 08:34:27;;;;;;;2.75;0.80;;;7.40;99.90;;;;;;5050890;28;20090;-73
2024/03/01 08:36:54;;;;;;;4.00;1.38;;;7.50;99.90;;;;;;5050846;28;20072;-73
2024/03/01 08:39:21;;;;;;;2.50;1.13;;;7.40;99.90;;;;;;5034163;28;20504;-73
2024/03/01 08:41:49;;;;;;;3.17;1.48;;;7.60;99.90;;;;;;5050368;28;20079;-73
2024/03/01 08:44:46;;;;;;;1.70;1.33;;;7.50;99.90;;;;;;5050701;28;20073;-74
2024/03/01 08:47:22;;;;;;;3.30;1.50;;;7.50;99.90;;;;;;5050522;28;20048;-74
2024/03/01 08:49:53;;;;;;;3.90;1.40;;;7.50;99.90;;;;;;5050425;28;20036;-73
2024/03/01 08:52:24;;;;;;;3.50;1.75;;;7.50;99.90;;;;;;5050167;28;20048;-73
2024/03/01 08:54:56;;;;;;;5.80;1.67;;;7.60;99.90;;;;;;5050490;28;20398;-73
2024/03/01 08:57:29;;;;;;;4.03;1.50;;;7.70;99.90;;;;;;5050408;28;20048;-73
2024/03/01 08:59:55;;;;;;;3.30;1.13;;;7.70;99.90;;;;;;5033664;28;20083;-73
2024/03/01 09:02:39;;;;;;;3.80;1.38;;;7.80;99.90;;;;;;5033757;28;20053;-73
2024/03/01 09:05:09;;;;;;;2.75;1.27;;;7.70;99.90;;;;;;5050403;28;20045;-73
2024/03/01 09:07:35;;;;;;;4.07;1.60;;;7.80;99.90;;;;;;5033485;28;20037;-73
2024/03/01 09:10:02;;;;;;;3.72;1.27;;;8.00;99.90;;;;;;5051576;28;20043;-73
2024/03/01 09:12:29;;;;;;;3.30;1.33;;;8.10;99.90;;;;;;5050166;28;20041;-73
2024/03/01 09:15:00;;;;;;;3.53;0.95;;;8.40;99.90;;;;;;5050254;28;20056;-73
2024/03/01 09:17:27;;;;;;;4.15;1.02;;;8.50;99.90;;;;;;5033628;28;20094;-73
2024/03/01 09:19:53;;;;;;;2.30;1.10;;;8.60;99.90;;;;;;5049818;28;20067;-73
2024/03/01 09:22:19;;;;;;;3.97;1.27;;;8.80;99.90;;;;;;5049634;28;20040;-73
2024/03/01 09:24:45;;;;;;;3.05;1.30;;;8.90;99.90;;;;;;5050179;28;20572;-72
2024/03/01 09:27:27;;;;;;;2.53;1.20;;;9.00;99.90;;;;;;5024111;28;20116;-72
2024/03/01 09:29:53;;;;;;;2.40;0.80;;;9.10;99.90;;;;;;5029547;28;20048;-72
2024/03/01 09:32:19;;;;;;;3.10;1.00;;;9.10;99.90;;;;;;5029007;28;20041;-73
2024/03/01 09:34:45;;;;;;;3.22;0.70;;;9.00;99.90;;;;;;5029674;28;20069;-72
2024/03/01 09:37:18;;;;;;;2.20;0.98;;;9.00;99.90;;;;;;5029928;28;20049;-73
2024/03/01 09:39:45;;;;;;;2.88;0.68;;;9.00;99.90;;;;;;5029286;28;20484;-73
2024/03/01 09:42:26;;;;;;;4.30;0.95;;;9.00;99.90;;;;;;5010110;28;20099;-73
2024/03/01 09:45:28;;;;;;;1.23;0.63;;;8.90;99.90;;;;;;5031396;28;20049;-72
2024/03/01 09:48:06;;;;;;;3.78;1.45;;;9.00;99.90;;;;;;5017400;28;20073;-73
2024/03/01 09:50:34;;;;;;;2.35;1.30;;;8.90;99.90;;;;;;5034079;28;20045;-73
2024/03/01 09:53:42;;;;;;;5.53;1.50;;;8.90;99.90;;;;;;5034103;28;20107;-73
2024/03/01 09:56:29;;;;;;;2.97;1.55;;;8.90;99.90;;;;;;4997437;28;20535;-73
2024/03/01 09:59:32;;;;;;;2.97;2.20;;;8.80;99.90;;;;;;5017144;28;20496;-73
2024/03/01 10:02:17;;;;;;;4.75;1.80;;;8.70;99.90;;;;;;5032811;28;20063;-73
2024/03/01 10:04:51;;;;;;;2.80;1.40;;;8.70;99.90;;;;;;5033036;28;20049;-73
2024/03/01 10:07:34;;;;;;;3.53;1.30;;;8.60;99.90;;;;;;5033743;28;20132;-73
2024/03/01 10:10:02;;;;;;;1.67;1.15;;;8.50;99.90;;;;;;5033512;28;20459;-73
2024/03/01 10:12:37;;;;;;;2.05;1.20;;;8.50;99.90;;;;;;5032762;28;20076;-73
2024/03/01 10:15:12;;;;;;;3.17;1.52;;;8.50;99.90;;;;;;5022437;28;20041;-73
2024/03/01 10:18:04;;;;;;;2.25;1.27;;;8.50;99.90;;;;;;5023435;28;20084;-73
2024/03/01 10:21:00;;;;;;;2.20;1.15;;;8.50;99.90;;;;;;5013550;28;20042;-73
2024/03/01 10:23:59;;;;;;;1.77;0.90;;;8.50;99.90;;;;;;5013964;28;20120;-73
2024/03/01 10:26:30;;;;;;;3.13;0.90;;;8.60;99.90;;;;;;5013620;28;20045;-73
2024/03/01 10:29:25;;;;;;;1.77;0.93;;;8.60;99.90;;;;;;4996953;28;20081;-73
2024/03/01 10:32:23;;;;;;;3.28;1.15;;;8.70;99.90;;;;;;5013389;28;20069;-73
2024/03/01 10:35:25;;;;;;;1.10;0.73;;;8.70;99.90;;;;;;5007902;28;20080;-73
2024/03/01 10:38:21;;;;;;;1.95;0.98;;;8.80;99.90;;;;;;5016901;28;20107;-73
2024/03/01 10:41:12;;;;;;;1.98;0.93;;;8.80;99.90;;;;;;5032566;28;20033;-72
2024/03/01 10:44:04;;;;;;;2.20;1.20;;;8.90;99.90;;;;;;5033083;28;20091;-72
2024/03/01 10:46:29;;;;;;;2.20;1.10;;;9.10;99.90;;;;;;5033085;28;20386;-73
2024/03/01 10:49:13;;;;;;;2.88;1.33;;;9.20;99.90;;;;;;5084637;22;20115;-70
2024/03/01 10:51:48;;;;;;;1.95;1.17;;;9.10;99.90;;;;;;5073705;28;20126;-70
2024/03/01 10:54:17;;;;;;;3.38;1.67;;;9.30;99.90;;;;;;5074267;28;20040;-70
2024/03/01 10:56:44;;;;;;;2.83;1.48;;;9.40;99.90;;;;;;5072952;28;20036;-70
2024/03/01 10:59:27;;;;;;;2.67;1.27;;;9.60;99.90;;;;;;5072952;28;20037;-71
2024/03/01 11:01:59;;;;;;;1.97;1.23;;;9.60;99.90;;;;;;5071567;28;20111;-71
2024/03/01 11:04:40;;;;;;;4.05;1.77;;;9.70;99.90;;;;;;5074107;28;20050;-71
2024/03/01 11:07:40;;;;;;;3.85;1.30;;;9.90;99.90;;;;;;5072837;28;20047;-71
2024/03/01 11:10:26;;;;;;;3.47;1.55;;;10.00;99.90;;;;;;5072220;28;20075;-70
2024/03/01 11:12:59;;;;;;;3.78;1.45;;;10.30;99.90;;;;;;5072021;28;20091;-70
2024/03/01 11:15:28;;;;;;;3.03;1.45;;;10.30;99.90;;;;;;5072402;28;20071;-70
2024/03/01 11:17:56;;;;;;;2.58;1.73;;;10.30;99.90;;;;;;5072265;28;20048;-70
2024/03/01 11:20:57;;;;;;;7.10;1.90;;;10.20;99.90;;;;;;5073318;28;20106;-70
2024/03/01 11:23:33;;;;;;;4.95;2.13;;;10.00;99.90;;;;;;5054040;28;20490;-70
2024/03/01 11:26:15;;;;;;;4.53;1.73;;;10.00;99.90;;;;;;5072413;28;20465;-70
2024/03/01 11:28:44;;;;;;;3.60;2.17;;;10.00;99.90;;;;;;5055423;28;20467;-70
2024/03/01 11:31:18;;;;;;;5.13;2.45;;;9.90;99.90;;;;;;5072806;28;20048;-70
2024/03/01 11:33:47;;;;;;;3.65;2.20;;;9.90;99.90;;;;;;5073626;28;20439;-70
2024/03/01 11:36:33;;;;;;;3.60;2.30;;;9.80;99.90;;;;;;5072016;28;20040;-70
2024/03/01 11:39:20;;;;;;;5.03;2.50;;;9.90;99.90;;;;;;5072938;28;20081;-70
2024/03/01 11:42:19;;;;;;;5.15;2.05;;;9.80;99.90;;;;;;5072732;28;20512;-70
2024/03/01 11:45:04;;;;;;;3.13;1.90;;;9.80;99.90;;;;;;5073066;28;20046;-70
2024/03/01 11:47:40;;;;;;;5.18;2.40;;;9.70;99.90;;;;;;5072824;28;20518;-70
2024/03/01 11:50:30;;;;;;;4.35;2.25;;;9.70;99.90;;;;;;5072869;28;20582;-70
2024/03/01 11:53:24;;;;;;;3.35;2.20;;;9.80;99.90;;;;;;5072759;28;20049;-70
2024/03/01 11:56:19;;;;;;;3.63;2.00;;;9.80;99.90;;;;;;5072951;28;20454;-70
2024/03/01 11:59:26;;;;;;;5.30;2.47;;;10.00;99.90;;;;;;5072813;28;20127;-70
2024/03/01 12:02:21;;;;;;;3.60;2.03;;;10.00;99.90;;;;;;5032010;28;20063;-70
2024/03/01 12:05:15;;;;;;;3.67;1.90;;;10.10;99.90;;;;;;5072903;28;20032;-70
2024/03/01 12:07:59;;;;;;;3.80;1.77;;;10.20;99.90;;;;;;5072418;28;20141;-70
2024/03/01 12:10:46;;;;;;;3.92;1.80;;;10.20;99.90;;;;;;5072140;28;20043;-70
2024/03/01 12:13:14;;;;;;;3.47;1.92;;;10.30;99.90;;;;;;5072797;28;20400;-70
2024/03/01 12:15:55;;;;;;;3.83;2.03;;;10.20;99.90;;;;;;5072601;28;20040;-70
2024/03/01 12:18:58;;;;;;;4.82;2.10;;;10.30;99.90;;;;;;5072065;28;20428;-70
2024/03/01 12:21:45;;;;;;;3.38;1.77;;;10.30;99.90;;;;;;5071855;28;20485;-70
2024/03/01 12:24:24;;;;;;;5.82;2.50;;;10.20;99.90;;;;;;5072472;28;20048;-70
2024/03/01 12:27:08;;;;;;;3.55;1.70;;;10.10;99.90;;;;;;5071142;28;20051;-70
2024/03/01 12:29:45;;;;;;;4.00;1.90;;;10.10;99.90;;;;;;5071972;28;20101;-70
2024/03/01 12:32:29;;;;;;;3.72;2.10;;;10.20;99.90;;;;;;5071855;28;20094;-70
2024/03/01 12:35:39;;;;;;;3.88;2.60;;;10.20;99.90;;;;;;5072169;28;20128;-70
2024/03/01 12:38:14;;;;;;;3.67;2.10;;;10.20;99.90;;;;;;5072130;28;20047;-71
2024/03/01 12:41:09;;;;;;;5.25;2.70;;;10.20;99.90;;;;;;5071729;28;20052;-70
2024/03/01 12:43:49;;;;;;;2.65;1.92;;;10.20;99.90;;;;;;5070987;28;20044;-70
2024/03/01 12:46:51;;;;;;;4.55;2.38;;;10.20;99.90;;;;;;5071961;28;20052;-70
2024/03/01 12:49:22;;;;;;;3.92;2.38;;;10.20;99.90;;;;;;5070228;28;20040;-70
2024/03/01 12:52:11;;;;;;;3.53;2.30;;;10.20;99.90;;;;;;5071538;28;20102;-70
2024/03/01 12:55:06;;;;;;;5.10;3.03;;;10.20;99.90;;;;;;5070676;28;20044;-70
2024/03/01 12:57:45;;;;;;;7.50;3.15;;;10.20;99.90;;;;;;5036818;28;20055;-70
2024/03/01 13:00:19;;;;;;;8.30;2.92;;;10.30;99.90;;;;;;5070218;28;20041;-70
2024/03/01 13:03:02;;;;;;;3.90;2.65;;;10.20;99.90;;;;;;5071221;28;20040;-70
2024/03/01 13:05:39;;;;;;;5.25;2.72;;;10.20;99.90;;;;;;5070698;28;20485;-70
2024/03/01 13:08:10;;;;;;;3.22;2.03;;;10.30;99.90;;;;;;5070692;28;20041;-70
2024/03/01 13:10:38;;;;;;;5.22;2.78;;;10.30;99.90;;;;;;5070121;28;20032;-72